createdAt,value
2017-06-10T15:13:39.883Z,2.50
2017-06-10T15:16:07.340Z,1.90
2017-06-10T15:18:34.859Z,3.50
2017-06-10T15:21:03.128Z,3.57
2017-06-10T15:23:30.633Z,4.37
2017-06-10T15:25:58.127Z,2.80
2017-06-10T15:28:25.627Z,2.17
2017-06-10T15:30:53.876Z,2.30
2017-06-10T15:33:21.359Z,3.70
2017-06-10T15:35:49.612Z,2.60
2017-06-10T15:38:17.096Z,2.33
2017-06-10T15:40:45.355Z,2.30
2017-06-10T15:43:12.843Z,2.40
2017-06-10T15:45:40.284Z,1.73
2017-06-10T15:48:07.742Z,1.83
2017-06-10T15:50:35.952Z,3.17
2017-06-10T15:53:03.444Z,1.57
2017-06-10T15:55:30.891Z,3.30
2017-06-10T15:57:58.352Z,4.33
2017-06-10T16:00:25.839Z,1.87
2017-06-10T16:02:54.095Z,1.90
2017-06-10T16:05:21.575Z,6.27
2017-06-10T16:07:49.831Z,2.70
2017-06-10T16:10:17.277Z,2.23
2017-06-10T16:12:44.768Z,2.20
2017-06-10T16:15:12.260Z,2.00
2017-06-10T16:17:39.688Z,7.53
2017-06-10T16:20:07.183Z,2.43
2017-06-10T16:22:34.667Z,4.60
2017-06-10T16:25:02.113Z,2.30
2017-06-10T16:27:29.564Z,8.70
2017-06-10T16:29:57.059Z,2.53
2017-06-10T16:32:24.547Z,3.10
2017-06-10T16:34:52.811Z,5.47
2017-06-10T16:37:21.017Z,5.20
2017-06-10T16:39:48.512Z,2.10
2017-06-10T16:42:16.004Z,3.53
2017-06-10T16:44:43.478Z,4.23
2017-06-10T16:47:10.963Z,3.13
2017-06-10T16:49:38.440Z,1.37
2017-06-10T16:52:05.888Z,3.43
2017-06-10T16:54:33.344Z,3.20
2017-06-10T16:57:00.796Z,2.80
2017-06-10T16:59:28.241Z,3.83
2017-06-10T17:01:55.815Z,2.90
2017-06-10T17:04:23.314Z,2.40
2017-06-10T17:06:50.788Z,3.60
2017-06-10T17:09:19.047Z,2.30
2017-06-10T17:11:46.533Z,4.40
2017-06-10T17:14:14.014Z,1.83
2017-06-10T17:16:41.491Z,3.13
2017-06-10T17:19:08.987Z,1.80
2017-06-10T17:21:36.467Z,1.77
2017-06-10T17:24:04.724Z,3.80
2017-06-10T17:26:32.172Z,2.30
2017-06-10T17:28:59.667Z,3.40
2017-06-10T17:31:27.108Z,3.63
2017-06-10T17:33:55.372Z,1.60
2017-06-10T17:36:22.860Z,2.73
2017-06-10T17:38:50.340Z,2.10
2017-06-10T17:41:17.827Z,6.57
2017-06-10T17:43:45.364Z,2.70
2017-06-10T17:46:12.851Z,2.23
2017-06-10T17:48:40.331Z,2.50
2017-06-10T17:51:07.819Z,3.50
2017-06-10T17:53:35.401Z,1.83
2017-06-10T17:56:02.875Z,1.80
2017-06-10T17:58:30.360Z,3.93
2017-06-10T18:00:57.809Z,2.00
2017-06-10T18:03:25.316Z,3.87
2017-06-10T18:05:52.799Z,1.43
2017-06-10T18:08:20.287Z,1.63
2017-06-10T18:10:47.763Z,3.63
2017-06-10T18:13:15.247Z,3.37
2017-06-10T18:15:42.736Z,3.03
2017-06-10T18:18:10.286Z,1.43
2017-06-10T18:20:37.734Z,2.10
2017-06-10T18:23:05.232Z,2.77
2017-06-10T18:25:32.681Z,2.10
2017-06-10T18:28:00.136Z,1.73
2017-06-10T18:30:33.336Z,2.00
2017-06-10T18:33:00.827Z,2.30
2017-06-10T18:35:29.049Z,2.50
2017-06-10T18:37:56.531Z,1.80
2017-06-10T18:40:23.978Z,2.90
2017-06-10T18:42:51.467Z,2.00
2017-06-10T18:45:18.912Z,3.97
2017-06-10T18:47:46.399Z,1.90
2017-06-10T18:50:14.644Z,1.83
2017-06-10T18:52:42.136Z,2.40
2017-06-10T18:55:10.391Z,2.17
2017-06-10T18:57:37.845Z,2.40
2017-06-10T19:00:05.340Z,1.97
2017-06-10T19:02:33.587Z,1.97
2017-06-10T19:05:01.080Z,3.10
2017-06-10T19:07:28.559Z,6.07
2017-06-10T19:09:56.039Z,2.30
2017-06-10T19:12:23.513Z,3.33
2017-06-10T19:14:50.991Z,4.13
2017-06-10T19:17:18.505Z,3.30
2017-06-10T19:19:45.979Z,3.20
2017-06-10T19:22:13.467Z,4.13
2017-06-10T19:24:41.723Z,3.47
2017-06-10T19:27:09.211Z,4.50
2017-06-10T19:29:37.493Z,5.07
2017-06-10T19:32:05.749Z,6.43
2017-06-10T19:34:33.235Z,5.63
2017-06-10T19:37:00.711Z,5.80
2017-06-10T19:39:28.155Z,4.93
2017-06-10T19:41:55.634Z,4.63
2017-06-10T19:44:23.114Z,3.70
2017-06-10T19:46:50.564Z,3.63
2017-06-10T19:49:18.055Z,8.60
2017-06-10T19:51:45.492Z,4.30
2017-06-10T19:54:12.991Z,5.27
2017-06-10T19:56:42.791Z,6.80
2017-06-10T19:59:10.279Z,6.23
2017-06-10T20:01:37.805Z,8.00
2017-06-10T20:04:05.257Z,6.57
2017-06-10T20:06:32.747Z,6.37
2017-06-10T20:09:00.991Z,6.60
2017-06-10T20:11:28.475Z,7.07
2017-06-10T20:13:56.723Z,6.43
2017-06-10T20:16:24.306Z,5.73
2017-06-10T20:18:52.520Z,5.50
2017-06-10T20:21:20.011Z,6.33
2017-06-10T20:23:47.503Z,7.10
2017-06-10T20:26:15.740Z,5.30
2017-06-10T20:28:43.331Z,6.03
2017-06-10T20:31:11.619Z,7.20
2017-06-10T20:33:39.852Z,6.13
2017-06-10T20:36:07.451Z,6.30
2017-06-10T20:38:35.668Z,4.63
2017-06-10T20:41:03.199Z,7.40
2017-06-10T20:43:31.436Z,7.63
2017-06-10T20:45:59.028Z,6.70
2017-06-10T20:48:27.303Z,9.63
2017-06-10T20:50:55.581Z,8.10
2017-06-10T20:53:23.864Z,6.30
2017-06-10T20:55:52.097Z,7.33
2017-06-10T20:58:19.710Z,6.10
2017-06-10T21:00:47.263Z,8.30
2017-06-10T21:03:14.827Z,7.70
2017-06-10T21:05:42.316Z,5.00
2017-06-10T21:08:09.756Z,6.80
2017-06-10T21:10:37.255Z,5.00
2017-06-10T21:13:04.850Z,6.67
2017-06-10T21:15:33.112Z,5.83
2017-06-10T21:18:00.560Z,5.30
2017-06-10T21:20:28.012Z,6.27
2017-06-10T21:22:55.503Z,6.80
2017-06-10T21:25:23.763Z,7.70
2017-06-10T21:27:51.213Z,7.17
2017-06-10T21:30:18.699Z,5.07
2017-06-10T21:32:46.959Z,6.70
2017-06-10T21:35:14.468Z,5.10
2017-06-10T21:37:41.921Z,5.70
2017-06-10T21:40:09.411Z,4.67
2017-06-10T21:42:36.901Z,7.33
2017-06-10T21:45:04.352Z,5.97
2017-06-10T21:47:32.615Z,5.40
2017-06-10T21:50:00.103Z,5.70
2017-06-10T21:52:27.602Z,5.37
2017-06-10T21:54:55.092Z,5.60
2017-06-10T21:57:22.549Z,6.00
2017-06-10T21:59:50.048Z,5.83
2017-06-10T22:02:17.535Z,4.80
2017-06-10T22:04:44.988Z,5.00
2017-06-10T22:07:12.484Z,6.47
2017-06-10T22:09:39.971Z,5.80
2017-06-10T22:12:07.463Z,7.60
2017-06-10T22:14:34.963Z,4.07
2017-06-10T22:17:02.451Z,5.33
2017-06-10T22:19:30.673Z,4.72
2017-06-10T22:21:58.171Z,5.23
2017-06-10T22:24:26.436Z,6.93
2017-06-10T22:26:53.927Z,6.03
2017-06-10T22:29:21.420Z,8.20
2017-06-10T22:31:48.872Z,6.13
2017-06-10T22:34:16.768Z,6.07
2017-06-10T22:36:44.267Z,5.97
2017-06-10T22:39:11.720Z,6.80
2017-06-10T22:41:39.211Z,4.80
2017-06-10T22:44:06.707Z,8.10
2017-06-10T22:46:34.195Z,5.97
2017-06-10T22:49:01.691Z,8.93
2017-06-10T22:51:29.203Z,6.37
2017-06-10T22:53:57.463Z,6.77
2017-06-10T22:56:24.963Z,5.40
2017-06-10T22:58:52.431Z,5.40
2017-06-10T23:01:19.934Z,5.80
2017-06-10T23:03:47.373Z,7.97
2017-06-10T23:06:14.875Z,5.70
2017-06-10T23:08:43.139Z,11.20
2017-06-10T23:11:10.632Z,5.93
2017-06-10T23:13:38.133Z,7.47
2017-06-10T23:16:05.628Z,8.13
2017-06-10T23:18:33.891Z,5.80
2017-06-10T23:21:01.380Z,4.77
2017-06-10T23:23:28.876Z,6.87
2017-06-10T23:25:56.324Z,8.57
2017-06-10T23:28:23.823Z,6.40
2017-06-10T23:30:51.307Z,6.57
2017-06-10T23:33:18.901Z,7.37
2017-06-10T23:35:46.444Z,3.93
2017-06-10T23:38:13.900Z,6.43
2017-06-10T23:40:41.391Z,4.60
2017-06-10T23:43:08.849Z,4.90
2017-06-10T23:45:36.305Z,5.37
2017-06-10T23:48:03.762Z,5.90
2017-06-10T23:50:31.266Z,6.93
2017-06-10T23:52:58.713Z,5.50
2017-06-10T23:55:26.204Z,5.73
2017-06-10T23:57:53.700Z,6.47
